Time;durP1;ratioP1;P1;durP2;ratioP2;P2;SDS_P1;SDS_P2;PMS_P1;PMS_P2;Temp;Humidity;BMP_temperature;BMP_pressure;BME280_temperature;BME280_humidity;BME280_pressure;Samples;Min_cycle;Max_cycle;Signal;HPM_P1;HPM_P2
2021/06/10 00:00:20;;;;;;;21.80;12.43;;;18.00;99.00;;;;;;5073701;28;20636;-80
2021/06/10 00:02:47;;;;;;;21.65;11.57;;;18.00;98.70;;;;;;5073231;28;20189;-80
2021/06/10 00:05:17;;;;;;;20.42;10.65;;;18.00;98.30;;;;;;5073366;28;20164;-80
2021/06/10 00:07:43;;;;;;;19.73;10.07;;;18.00;97.80;;;;;;5073537;28;20164;-80
2021/06/10 00:10:11;;;;;;;22.20;10.33;;;18.00;97.70;;;;;;5073098;28;20175;-80
2021/06/10 00:12:38;;;;;;;15.10;8.75;;;18.00;97.50;;;;;;5072963;28;20261;-80
2021/06/10 00:15:10;;;;;;;18.30;10.38;;;18.00;97.40;;;;;;5073259;28;20179;-81
2021/06/10 00:17:36;;;;;;;16.33;10.02;;;18.00;97.20;;;;;;5072872;28;20200;-81
2021/06/10 00:20:03;;;;;;;16.45;10.30;;;18.00;96.60;;;;;;5072971;28;20640;-81
2021/06/10 00:22:29;;;;;;;14.10;9.40;;;18.00;96.40;;;;;;5074147;28;20184;-80
2021/06/10 00:24:55;;;;;;;16.50;10.30;;;17.90;96.30;;;;;;5075327;28;20172;-80
2021/06/10 00:27:21;;;;;;;19.20;9.80;;;17.90;96.40;;;;;;5076110;28;20195;-80
2021/06/10 00:29:53;;;;;;;18.52;11.70;;;17.90;96.40;;;;;;5075729;28;20173;-80
2021/06/10 00:32:19;;;;;;;21.00;9.68;;;17.80;96.80;;;;;;5075193;28;20200;-80
2021/06/10 00:34:45;;;;;;;18.50;9.90;;;17.80;97.00;;;;;;5075421;28;20636;-80
2021/06/10 00:37:12;;;;;;;19.70;10.40;;;17.80;97.20;;;;;;5074533;28;20812;-80
2021/06/10 00:39:40;;;;;;;24.60;12.15;;;17.80;97.50;;;;;;5074352;28;20592;-80
2021/06/10 00:42:07;;;;;;;15.80;10.68;;;17.70;97.80;;;;;;5074248;28;20204;-80
2021/06/10 00:44:34;;;;;;;22.35;10.80;;;17.70;97.90;;;;;;5076043;28;20176;-81
2021/06/10 00:47:00;;;;;;;17.73;11.18;;;17.70;97.90;;;;;;5079481;28;20173;-81
2021/06/10 00:49:26;;;;;;;18.50;11.93;;;17.70;98.30;;;;;;5078902;28;20179;-81
2021/06/10 00:51:52;;;;;;;25.75;12.63;;;17.70;98.50;;;;;;5077627;28;20441;-81
2021/06/10 00:54:18;;;;;;;21.63;12.98;;;17.70;98.60;;;;;;5077675;28;20168;-81
2021/06/10 00:56:45;;;;;;;29.23;14.93;;;17.70;98.90;;;;;;5077801;28;20203;-80
2021/06/10 00:59:11;;;;;;;23.33;13.45;;;17.70;99.10;;;;;;5077640;28;20530;-80
2021/06/10 01:01:37;;;;;;;24.67;14.03;;;17.70;99.10;;;;;;5076861;28;20192;-81
2021/06/10 01:04:02;;;;;;;26.10;14.60;;;17.60;99.10;;;;;;5076868;28;20176;-80
2021/06/10 01:06:39;;;;;;;26.40;14.33;;;17.60;99.10;;;;;;5077354;28;20451;-81
2021/06/10 01:09:28;;;;;;;21.73;12.52;;;17.60;99.10;;;;;;5077287;28;20418;-80
2021/06/10 01:12:09;;;;;;;26.15;13.95;;;17.60;99.10;;;;;;5066961;28;20196;-81
2021/06/10 01:15:09;;;;;;;21.38;12.43;;;17.60;99.10;;;;;;5077454;28;20325;-81
2021/06/10 01:17:43;;;;;;;23.30;13.77;;;17.60;99.10;;;;;;5076075;28;20741;-81
2021/06/10 01:20:21;;;;;;;24.90;12.70;;;17.60;99.10;;;;;;5076089;28;20163;-80
2021/06/10 01:22:56;;;;;;;22.10;11.75;;;17.60;99.10;;;;;;5076985;28;20192;-80
2021/06/10 01:25:22;;;;;;;20.90;12.02;;;17.50;99.10;;;;;;5077084;28;20553;-80
2021/06/10 01:27:52;;;;;;;19.67;11.13;;;17.60;99.10;;;;;;5077078;28;20183;-80
2021/06/10 01:30:33;;;;;;;21.15;11.23;;;17.50;99.10;;;;;;5076908;28;20180;-80
2021/06/10 01:33:13;;;;;;;18.83;11.23;;;17.50;99.10;;;;;;5076863;28;20188;-81
2021/06/10 01:36:04;;;;;;;21.95;10.93;;;17.60;98.60;;;;;;5076351;28;20523;-80
2021/06/10 01:38:32;;;;;;;20.08;11.40;;;17.60;98.40;;;;;;5076362;28;20556;-80
2021/06/10 01:40:59;;;;;;;19.90;11.15;;;17.50;98.20;;;;;;5076687;28;20177;-80
2021/06/10 01:43:29;;;;;;;21.45;12.00;;;17.50;98.10;;;;;;5076333;28;20199;-80
2021/06/10 01:45:59;;;;;;;20.27;11.80;;;17.40;98.30;;;;;;5075974;28;20233;-80
2021/06/10 01:48:26;;;;;;;22.35;11.60;;;17.40;98.40;;;;;;5076984;28;20175;-80
2021/06/10 01:50:55;;;;;;;18.02;11.20;;;17.40;98.80;;;;;;5077668;28;20177;-81
2021/06/10 01:53:22;;;;;;;22.52;12.57;;;17.30;99.00;;;;;;5077404;28;20352;-80
2021/06/10 01:55:50;;;;;;;25.48;12.23;;;17.40;99.10;;;;;;5077240;28;20178;-80
2021/06/10 01:58:17;;;;;;;30.73;14.85;;;17.40;99.10;;;;;;5076621;28;20246;-80
2021/06/10 02:00:45;;;;;;;23.60;12.90;;;17.30;99.10;;;;;;5076880;28;20175;-80
2021/06/10 02:03:12;;;;;;;28.08;14.98;;;17.20;99.10;;;;;;5078079;28;20192;-81
2021/06/10 02:05:39;;;;;;;26.70;14.52;;;17.20;99.10;;;;;;5079452;28;20567;-81
2021/06/10 02:08:14;;;;;;;30.63;14.75;;;17.20;99.10;;;;;;5080515;28;20196;-80
2021/06/10 02:10:42;;;;;;;28.88;15.10;;;17.20;99.10;;;;;;5081066;28;20203;-80
2021/06/10 02:13:08;;;;;;;28.67;14.95;;;17.10;99.10;;;;;;5080648;28;20567;-80
2021/06/10 02:15:36;;;;;;;28.38;14.90;;;17.10;99.10;;;;;;5080441;28;20635;-80
2021/06/10 02:18:03;;;;;;;32.65;15.07;;;17.10;99.10;;;;;;5080415;28;20227;-80
2021/06/10 02:20:28;;;;;;;31.02;15.52;;;17.00;99.10;;;;;;5080044;28;20194;-80
2021/06/10 02:22:54;;;;;;;27.23;14.33;;;16.90;99.10;;;;;;5081397;28;20692;-81
2021/06/10 02:25:20;;;;;;;30.50;14.83;;;17.00;99.10;;;;;;5080706;28;20168;-81
2021/06/10 02:27:46;;;;;;;26.42;13.40;;;17.00;99.10;;;;;;5080578;28;21313;-81
2021/06/10 02:30:14;;;;;;;26.93;12.60;;;17.00;99.10;;;;;;5079781;28;20183;-80
2021/06/10 02:32:40;;;;;;;24.92;12.88;;;17.00;99.10;;;;;;5079431;28;20461;-80
2021/06/10 02:35:08;;;;;;;22.73;13.13;;;17.00;99.10;;;;;;5079852;28;20177;-80
2021/06/10 02:37:36;;;;;;;23.17;12.10;;;17.00;99.10;;;;;;5078628;28;20333;-81
2021/06/10 02:40:12;;;;;;;24.67;11.98;;;17.00;99.10;;;;;;5078603;28;20548;-81
2021/06/10 02:42:39;;;;;;;26.15;12.55;;;16.90;99.10;;;;;;5079722;28;20727;-80
2021/06/10 02:45:07;;;;;;;21.33;12.85;;;16.90;99.10;;;;;;5078297;28;20644;-80
2021/06/10 02:47:34;;;;;;;25.60;11.80;;;16.80;99.10;;;;;;5078487;28;20267;-80
2021/06/10 02:50:01;;;;;;;21.92;11.90;;;16.80;99.10;;;;;;5079087;28;20181;-80
2021/06/10 02:52:28;;;;;;;20.83;10.80;;;16.80;99.10;;;;;;5078599;28;20192;-80
2021/06/10 02:54:54;;;;;;;30.38;12.35;;;16.80;99.10;;;;;;5078153;28;20180;-80
2021/06/10 02:57:22;;;;;;;29.90;13.80;;;16.80;99.10;;;;;;5078456;28;20196;-80
2021/06/10 02:59:50;;;;;;;30.13;14.57;;;16.80;99.10;;;;;;5078201;28;20168;-80
2021/06/10 03:02:16;;;;;;;26.48;14.20;;;16.70;99.10;;;;;;5077768;28;20279;-81
2021/06/10 03:04:44;;;;;;;29.50;14.47;;;16.60;99.10;;;;;;5078598;28;20249;-80
2021/06/10 03:07:13;;;;;;;26.10;14.00;;;16.60;99.10;;;;;;5078530;28;20422;-81
2021/06/10 03:09:40;;;;;;;41.53;16.77;;;16.60;99.10;;;;;;5079315;28;20184;-80
2021/06/10 03:12:08;;;;;;;37.33;17.35;;;16.50;99.10;;;;;;5078383;28;20253;-81
2021/06/10 03:14:34;;;;;;;38.97;17.85;;;16.40;99.10;;;;;;5078796;28;20179;-80
2021/06/10 03:17:01;;;;;;;28.83;16.52;;;16.40;99.10;;;;;;5079216;28;20269;-81
2021/06/10 03:19:27;;;;;;;39.40;18.70;;;16.30;99.10;;;;;;5078857;28;20168;-80
2021/06/10 03:21:54;;;;;;;37.70;18.00;;;16.30;99.10;;;;;;5078572;28;20574;-81
2021/06/10 03:24:21;;;;;;;35.50;17.50;;;16.30;99.10;;;;;;5079387;28;20176;-81
2021/06/10 03:26:48;;;;;;;36.38;19.20;;;16.30;99.10;;;;;;5078949;28;20265;-81
2021/06/10 03:29:14;;;;;;;35.67;18.52;;;16.20;99.10;;;;;;5078373;28;20248;-80
2021/06/10 03:31:42;;;;;;;34.63;17.85;;;16.20;99.10;;;;;;5078475;28;20207;-81
2021/06/10 03:34:08;;;;;;;40.28;19.23;;;16.20;99.10;;;;;;5077440;28;20183;-81
2021/06/10 03:36:34;;;;;;;37.13;18.40;;;16.10;99.10;;;;;;5078543;28;20698;-81
2021/06/10 03:41:39;;;;;;;34.83;17.73;;;16.10;99.10;;;;;;5077635;28;20345;-82
2021/06/10 03:44:07;;;;;;;36.97;18.45;;;16.10;99.10;;;;;;5079196;28;20575;-82
2021/06/10 03:46:34;;;;;;;36.75;18.63;;;16.10;99.10;;;;;;5079976;28;20176;-82
2021/06/10 03:49:00;;;;;;;36.75;17.58;;;16.20;99.10;;;;;;5078822;28;20168;-82
2021/06/10 03:51:26;;;;;;;35.90;18.40;;;16.20;99.10;;;;;;5078943;28;20253;-82
2021/06/10 03:53:54;;;;;;;33.43;17.20;;;16.10;99.10;;;;;;5079861;28;20414;-82
2021/06/10 03:56:20;;;;;;;36.13;18.23;;;16.10;99.10;;;;;;5080561;28;20471;-82
2021/06/10 03:58:46;;;;;;;37.35;19.30;;;16.10;99.10;;;;;;5079827;28;20169;-82
2021/06/10 04:01:12;;;;;;;37.50;19.20;;;16.00;99.10;;;;;;5079199;28;20195;-82
2021/06/10 04:03:38;;;;;;;37.23;19.00;;;15.90;99.10;;;;;;5079643;28;20648;-82
2021/06/10 04:06:04;;;;;;;46.47;20.77;;;15.90;99.10;;;;;;5080174;28;20851;-82
2021/06/10 04:08:30;;;;;;;40.75;20.70;;;15.80;99.10;;;;;;5080537;28;20644;-81
2021/06/10 04:10:56;;;;;;;42.05;19.63;;;15.80;99.10;;;;;;5079904;28;20203;-83
2021/06/10 04:13:21;;;;;;;44.83;18.83;;;15.80;99.10;;;;;;5080427;28;20208;-83
2021/06/10 04:15:47;;;;;;;44.80;22.17;;;15.80;99.10;;;;;;5080003;28;20172;-83
2021/06/10 04:18:18;;;;;;;38.47;19.70;;;15.80;99.10;;;;;;5080582;28;20454;-83
2021/06/10 04:20:48;;;;;;;41.30;20.88;;;15.80;99.10;;;;;;5080505;28;20180;-82
2021/06/10 04:23:14;;;;;;;43.58;18.15;;;15.80;99.10;;;;;;5078596;28;20185;-81
2021/06/10 04:25:40;;;;;;;41.70;18.88;;;15.90;99.10;;;;;;5078111;28;20176;-82
2021/06/10 04:28:05;;;;;;;45.30;19.03;;;15.90;99.10;;;;;;5079853;28;20175;-82
2021/06/10 04:30:31;;;;;;;43.57;19.10;;;15.90;99.10;;;;;;5080149;28;20414;-82
2021/06/10 04:32:57;;;;;;;34.53;17.15;;;15.90;99.10;;;;;;5079484;28;20446;-82
2021/06/10 04:35:23;;;;;;;30.40;17.00;;;15.90;99.10;;;;;;5078594;28;20179;-82
2021/06/10 04:37:49;;;;;;;29.90;15.30;;;15.90;99.10;;;;;;5079042;28;20454;-82
2021/06/10 04:40:15;;;;;;;36.87;16.97;;;15.90;99.10;;;;;;5079118;28;20430;-82
2021/06/10 04:42:41;;;;;;;39.17;17.10;;;15.90;99.10;;;;;;5077802;28;20435;-83
2021/06/10 04:45:07;;;;;;;34.90;18.27;;;15.80;99.10;;;;;;5077652;28;20259;-85
2021/06/10 04:47:33;;;;;;;39.13;18.52;;;15.80;99.10;;;;;;5078460;28;20469;-83
2021/06/10 04:49:59;;;;;;;39.00;18.30;;;15.80;99.10;;;;;;5076854;28;20731;-88
2021/06/10 04:52:25;;;;;;;41.80;18.60;;;15.80;99.10;;;;;;5076068;28;20489;-88
2021/06/10 04:54:50;;;;;;;39.87;19.00;;;15.80;99.10;;;;;;5075268;28;20179;-88
2021/06/10 04:57:25;;;;;;;34.70;18.40;;;15.80;99.10;;;;;;5075329;28;20668;-88
2021/06/10 04:59:51;;;;;;;39.85;18.42;;;15.80;99.10;;;;;;5076654;28;20398;-89
2021/06/10 05:02:17;;;;;;;49.30;20.67;;;15.80;99.10;;;;;;5075263;28;20230;-87
2021/06/10 05:04:43;;;;;;;38.50;17.27;;;15.80;99.10;;;;;;5074711;28;20411;-86
2021/06/10 05:07:11;;;;;;;36.73;18.47;;;15.80;99.10;;;;;;5074771;28;20500;-84
2021/06/10 05:09:37;;;;;;;37.10;18.67;;;15.80;99.10;;;;;;5081577;28;20171;-83
2021/06/10 05:12:04;;;;;;;39.03;17.55;;;15.80;99.10;;;;;;5083063;28;20197;-82
2021/06/10 05:14:30;;;;;;;40.63;19.63;;;15.80;99.10;;;;;;5083228;28;20181;-83
2021/06/10 05:16:56;;;;;;;45.00;19.38;;;15.90;99.10;;;;;;5083207;28;20258;-82
2021/06/10 05:19:22;;;;;;;46.43;17.47;;;15.90;99.10;;;;;;5082479;28;20173;-82
2021/06/10 05:21:48;;;;;;;32.10;17.10;;;16.10;99.10;;;;;;5080472;28;20430;-83
2021/06/10 05:24:15;;;;;;;33.87;17.60;;;16.10;99.10;;;;;;5081087;28;20403;-83
2021/06/10 05:26:41;;;;;;;32.58;17.75;;;16.10;99.10;;;;;;5081444;28;20169;-83
2021/06/10 05:29:08;;;;;;;36.17;18.88;;;16.20;99.10;;;;;;5078832;28;20173;-83
2021/06/10 05:31:33;;;;;;;28.63;16.75;;;16.30;99.10;;;;;;5079293;28;20197;-84
2021/06/10 05:33:59;;;;;;;31.30;17.20;;;16.40;99.10;;;;;;5079104;28;20173;-84
2021/06/10 05:36:26;;;;;;;31.00;15.40;;;16.50;99.10;;;;;;5079446;28;20533;-84
2021/06/10 05:38:52;;;;;;;38.55;18.05;;;16.50;99.10;;;;;;5076226;28;20547;-84
2021/06/10 05:41:18;;;;;;;33.33;16.13;;;16.60;99.10;;;;;;5072973;28;20188;-85
2021/06/10 05:43:44;;;;;;;32.00;15.30;;;16.70;99.10;;;;;;5075129;28;20921;-85
2021/06/10 05:46:10;;;;;;;29.50;16.60;;;16.90;99.10;;;;;;5074912;28;20530;-85
2021/06/10 05:48:36;;;;;;;26.10;14.20;;;17.00;99.10;;;;;;5074175;28;20179;-84
2021/06/10 05:51:02;;;;;;;28.03;14.70;;;17.20;99.10;;;;;;5074737;28;20414;-85
2021/06/10 05:53:27;;;;;;;28.03;14.47;;;17.30;99.10;;;;;;5074134;28;20176;-85
2021/06/10 05:55:53;;;;;;;26.53;14.83;;;17.40;99.10;;;;;;5073869;28;20418;-85
2021/06/10 05:58:19;;;;;;;27.03;14.00;;;17.50;99.10;;;;;;5074037;28;20611;-85
2021/06/10 06:00:45;;;;;;;25.43;14.40;;;17.70;98.90;;;;;;5073895;28;20433;-85
2021/06/10 06:03:12;;;;;;;28.55;14.57;;;17.80;98.10;;;;;;5075736;28;20212;-84
2021/06/10 06:05:38;;;;;;;28.15;14.60;;;17.90;98.20;;;;;;5074665;28;20195;-84
2021/06/10 06:08:04;;;;;;;24.38;14.27;;;18.00;97.90;;;;;;5074337;28;20222;-84
2021/06/10 06:10:30;;;;;;;22.70;13.77;;;18.10;97.70;;;;;;5074620;28;20207;-85
2021/06/10 06:12:59;;;;;;;21.40;12.75;;;18.30;97.60;;;;;;5074493;28;20199;-85
2021/06/10 06:15:29;;;;;;;19.63;12.25;;;18.40;96.70;;;;;;5074633;28;20188;-85
2021/06/10 06:17:55;;;;;;;24.77;13.93;;;18.50;96.80;;;;;;5074819;28;20196;-85
2021/06/10 06:20:22;;;;;;;23.92;12.80;;;18.60;96.10;;;;;;5076154;28;20169;-86
2021/06/10 06:22:48;;;;;;;29.55;14.32;;;18.70;95.60;;;;;;5075144;28;20192;-84
2021/06/10 06:25:16;;;;;;;18.40;12.30;;;18.80;94.80;;;;;;5073882;28;20283;-86
2021/06/10 06:27:42;;;;;;;26.77;13.60;;;18.90;95.70;;;;;;5073391;28;20184;-86
2021/06/10 06:30:10;;;;;;;21.88;12.30;;;19.10;95.20;;;;;;5072875;28;20215;-86
2021/06/10 06:32:37;;;;;;;24.58;13.55;;;19.30;94.10;;;;;;5073358;28;20215;-85
2021/06/10 06:35:07;;;;;;;25.23;12.07;;;19.50;94.20;;;;;;5073723;28;20173;-86
2021/06/10 06:37:33;;;;;;;23.08;11.80;;;19.70;93.30;;;;;;5073695;28;20200;-84
2021/06/10 06:40:00;;;;;;;20.88;12.00;;;19.80;92.00;;;;;;5073629;28;20712;-85
2021/06/10 06:42:26;;;;;;;21.83;11.60;;;19.90;92.40;;;;;;5072944;28;20185;-85
2021/06/10 06:44:52;;;;;;;23.55;11.98;;;20.10;92.00;;;;;;5073279;28;20260;-84
2021/06/10 06:47:18;;;;;;;24.65;13.07;;;20.30;91.60;;;;;;5073714;28;20169;-86
2021/06/10 06:49:44;;;;;;;19.27;12.13;;;20.30;91.70;;;;;;5075758;28;20176;-83
2021/06/10 06:52:10;;;;;;;22.25;11.48;;;20.40;91.30;;;;;;5079567;28;20250;-85
2021/06/10 06:54:37;;;;;;;19.23;11.43;;;20.60;90.80;;;;;;5081143;28;20180;-84
2021/06/10 06:57:04;;;;;;;23.98;12.00;;;20.80;90.50;;;;;;5077659;28;20227;-86
2021/06/10 06:59:30;;;;;;;19.52;12.07;;;20.80;90.20;;;;;;5077359;28;20176;-86
2021/06/10 07:01:55;;;;;;;20.80;12.55;;;21.10;90.20;;;;;;5077876;28;20188;-83
2021/06/10 07:04:22;;;;;;;24.83;13.80;;;;;;;;;;5080354;28;20628;-87
2021/06/10 07:06:47;;;;;;;25.30;12.30;;;21.50;87.30;;;;;;5079170;28;20195;-87
2021/06/10 07:09:14;;;;;;;20.77;11.30;;;21.70;86.40;;;;;;5080092;28;20188;-86
2021/06/10 07:11:40;;;;;;;25.30;11.45;;;21.80;86.90;;;;;;5079540;28;20427;-87
2021/06/10 07:14:06;;;;;;;21.50;11.13;;;22.00;84.10;;;;;;5079705;28;20173;-86
2021/06/10 07:16:32;;;;;;;19.80;11.50;;;22.00;85.60;;;;;;5078733;28;20611;-86
2021/06/10 07:18:57;;;;;;;24.60;13.90;;;22.10;85.60;;;;;;5079819;28;20398;-86
2021/06/10 07:21:23;;;;;;;23.57;13.80;;;22.20;84.90;;;;;;5079944;28;20434;-86
2021/06/10 07:23:49;;;;;;;25.80;12.67;;;22.40;84.10;;;;;;5079688;28;20255;-86
2021/06/10 07:26:15;;;;;;;23.07;11.73;;;22.60;84.40;;;;;;5080299;28;20415;-85
2021/06/10 07:28:41;;;;;;;23.07;11.23;;;22.80;83.00;;;;;;5077796;28;20453;-86
2021/06/10 07:31:06;;;;;;;28.10;12.40;;;23.00;81.90;;;;;;5078228;28;20419;-84
2021/06/10 07:33:32;;;;;;;19.53;11.53;;;23.10;80.50;;;;;;5078202;28;20172;-86
2021/06/10 07:35:58;;;;;;;17.20;11.40;;;23.10;81.90;;;;;;5078066;28;20172;-86
2021/06/10 07:38:24;;;;;;;18.50;12.07;;;23.20;82.00;;;;;;5078496;28;20668;-86
2021/06/10 07:40:50;;;;;;;17.73;10.73;;;23.30;80.90;;;;;;5076525;28;20434;-87
2021/06/10 07:43:16;;;;;;;17.13;10.40;;;23.40;81.30;;;;;;5077101;28;20560;-87
2021/06/10 07:45:42;;;;;;;20.40;12.00;;;23.50;79.60;;;;;;5076729;28;20417;-85
2021/06/10 07:48:08;;;;;;;22.27;11.63;;;23.50;78.40;;;;;;5075929;28;20176;-86
2021/06/10 07:50:35;;;;;;;23.58;11.43;;;23.50;79.20;;;;;;5075413;28;20407;-85
2021/06/10 07:53:01;;;;;;;16.13;10.35;;;23.70;78.70;;;;;;5075468;28;20196;-85
2021/06/10 07:55:27;;;;;;;15.60;9.80;;;23.80;76.70;;;;;;5075775;28;20176;-83
2021/06/10 07:57:55;;;;;;;19.42;10.63;;;24.00;75.50;;;;;;5077105;28;20805;-84
2021/06/10 08:00:22;;;;;;;19.48;10.50;;;24.10;76.30;;;;;;5077584;28;20157;-85
2021/06/10 08:02:48;;;;;;;17.15;10.23;;;24.30;75.30;;;;;;5076576;28;20200;-87
2021/06/10 08:05:15;;;;;;;18.65;8.95;;;24.50;72.80;;;;;;5077936;28;20179;-84
2021/06/10 08:07:42;;;;;;;14.88;9.93;;;24.60;71.30;;;;;;5078209;28;20176;-84
2021/06/10 08:10:13;;;;;;;19.60;10.98;;;24.80;70.10;;;;;;5076023;28;20180;-89
2021/06/10 08:12:39;;;;;;;24.08;12.52;;;24.80;70.20;;;;;;5076481;28;20252;-85
2021/06/10 08:15:05;;;;;;;19.30;12.15;;;24.80;69.80;;;;;;5077241;28;20172;-87
2021/06/10 08:17:33;;;;;;;17.88;11.02;;;24.90;70.60;;;;;;5076054;28;20203;-87
2021/06/10 08:19:59;;;;;;;25.35;11.00;;;25.10;71.40;;;;;;5075290;28;20173;-87
2021/06/10 08:22:25;;;;;;;22.67;11.27;;;25.30;68.90;;;;;;5074791;28;20199;-86
2021/06/10 08:24:50;;;;;;;18.73;11.60;;;25.40;68.80;;;;;;5074778;28;20464;-87
2021/06/10 08:27:16;;;;;;;18.10;10.20;;;25.60;68.70;;;;;;5075338;28;20152;-87
2021/06/10 08:29:42;;;;;;;17.40;10.43;;;25.80;68.00;;;;;;5075134;28;20176;-87
2021/06/10 08:32:08;;;;;;;19.15;10.38;;;25.90;68.10;;;;;;5074925;28;20250;-86
2021/06/10 08:34:34;;;;;;;16.70;11.40;;;25.90;66.30;;;;;;5074645;28;20558;-86
2021/06/10 08:37:00;;;;;;;22.63;11.37;;;25.90;67.30;;;;;;5074911;28;20200;-87
2021/06/10 08:39:25;;;;;;;20.77;11.73;;;25.90;68.40;;;;;;5073856;28;20175;-85
2021/06/10 08:41:53;;;;;;;23.27;11.20;;;25.80;68.00;;;;;;5074574;28;20196;-86
2021/06/10 08:44:19;;;;;;;15.60;10.85;;;25.80;68.00;;;;;;5073927;28;20242;-87
2021/06/10 08:46:48;;;;;;;21.00;10.80;;;26.10;68.80;;;;;;5074555;28;20172;-87
2021/06/10 08:49:15;;;;;;;28.02;14.23;;;26.10;68.70;;;;;;5075848;28;20200;-87
2021/06/10 08:51:41;;;;;;;20.40;12.45;;;26.30;66.60;;;;;;5074806;28;20563;-87
2021/06/10 08:54:06;;;;;;;18.30;12.10;;;26.50;66.00;;;;;;5074959;28;20169;-87
2021/06/10 08:56:33;;;;;;;24.60;12.63;;;26.60;64.90;;;;;;5075110;28;20672;-87
2021/06/10 08:59:00;;;;;;;14.43;9.90;;;26.70;65.30;;;;;;5075623;28;20172;-87
2021/06/10 09:01:26;;;;;;;20.45;11.60;;;26.80;66.00;;;;;;5074047;28;20193;-87
2021/06/10 09:03:54;;;;;;;19.42;11.00;;;27.00;65.20;;;;;;5073818;28;20701;-88
2021/06/10 09:06:20;;;;;;;18.30;12.07;;;27.00;63.30;;;;;;5073789;28;20584;-87
2021/06/10 09:08:55;;;;;;;23.38;10.80;;;27.20;62.40;;;;;;5073733;28;20165;-87
2021/06/10 09:11:25;;;;;;;19.75;12.80;;;27.20;63.10;;;;;;5073643;28;20196;-87
2021/06/10 09:13:58;;;;;;;17.20;11.15;;;27.20;62.40;;;;;;5073175;28;20168;-86
2021/06/10 09:16:31;;;;;;;23.92;12.95;;;27.20;62.70;;;;;;5074168;28;20255;-87
2021/06/10 09:19:03;;;;;;;23.13;12.85;;;27.40;63.40;;;;;;5074271;28;20164;-87
2021/06/10 09:21:42;;;;;;;21.75;11.27;;;27.40;63.40;;;;;;5074141;28;20192;-87
2021/06/10 09:24:29;;;;;;;13.63;10.07;;;27.40;62.40;;;;;;5073922;28;20168;-87
2021/06/10 09:27:12;;;;;;;18.45;11.23;;;27.60;62.80;;;;;;5073738;28;20202;-86
2021/06/10 09:29:50;;;;;;;24.30;12.20;;;27.70;61.20;;;;;;5073221;28;20514;-86
2021/06/10 09:32:20;;;;;;;19.30;11.15;;;27.80;60.50;;;;;;5073000;28;20192;-87
2021/06/10 09:34:53;;;;;;;16.70;10.52;;;27.90;61.70;;;;;;5072916;28;20644;-86
2021/06/10 09:37:37;;;;;;;17.88;10.95;;;28.10;62.70;;;;;;5073006;28;20268;-87
2021/06/10 09:40:03;;;;;;;18.02;11.45;;;28.30;60.90;;;;;;5073223;28;20191;-84
2021/06/10 09:42:33;;;;;;;22.43;12.83;;;28.30;59.20;;;;;;5073293;28;20199;-85
2021/06/10 09:45:00;;;;;;;25.23;13.77;;;28.30;59.20;;;;;;5073266;28;20184;-87
2021/06/10 09:47:43;;;;;;;17.17;11.10;;;28.40;59.40;;;;;;5073624;28;20256;-86
2021/06/10 09:50:19;;;;;;;22.65;10.73;;;28.40;59.80;;;;;;5073655;28;20167;-87
2021/06/10 09:52:50;;;;;;;17.23;10.80;;;28.50;60.50;;;;;;5072945;28;20195;-86
2021/06/10 09:55:39;;;;;;;19.83;12.15;;;28.70;58.90;;;;;;5072835;28;20168;-87
2021/06/10 09:58:06;;;;;;;22.70;12.07;;;28.80;58.90;;;;;;5072658;28;20196;-87
2021/06/10 10:00:32;;;;;;;16.63;11.45;;;28.90;60.10;;;;;;5073199;28;20275;-86
2021/06/10 10:02:58;;;;;;;16.90;10.57;;;29.00;57.70;;;;;;5073362;28;20254;-86
2021/06/10 10:05:25;;;;;;;16.17;10.23;;;28.90;56.70;;;;;;5072912;28;20425;-87
2021/06/10 10:07:52;;;;;;;18.23;11.82;;;29.00;57.40;;;;;;5072933;28;20248;-86
2021/06/10 10:10:18;;;;;;;21.38;11.60;;;28.90;56.80;;;;;;5073206;28;20212;-87
2021/06/10 10:12:46;;;;;;;18.88;10.90;;;28.90;58.40;;;;;;5072813;28;20192;-87
2021/06/10 10:15:14;;;;;;;16.10;11.05;;;28.90;58.80;;;;;;5073467;28;20152;-87
2021/06/10 10:17:40;;;;;;;17.23;11.68;;;28.90;58.40;;;;;;5073408;28;20204;-86
2021/06/10 10:20:08;;;;;;;20.98;11.93;;;29.10;57.10;;;;;;5072991;28;20217;-87
2021/06/10 10:22:37;;;;;;;20.40;10.70;;;29.20;57.20;;;;;;5056391;28;20222;-86
2021/06/10 10:25:04;;;;;;;18.63;12.02;;;29.20;56.00;;;;;;5075455;28;20184;-87
2021/06/10 10:27:30;;;;;;;18.20;11.75;;;29.10;56.30;;;;;;5076861;28;20168;-86
2021/06/10 10:29:57;;;;;;;29.85;13.80;;;29.10;56.70;;;;;;5076673;28;20671;-86
2021/06/10 10:32:28;;;;;;;18.20;12.18;;;29.10;55.10;;;;;;5076745;28;20246;-86
2021/06/10 10:35:12;;;;;;;19.70;12.73;;;29.20;57.70;;;;;;5076771;28;20176;-86
2021/06/10 10:37:39;;;;;;;20.50;11.55;;;29.40;56.00;;;;;;5076633;28;20303;-87
2021/06/10 10:40:09;;;;;;;17.30;13.02;;;29.50;57.50;;;;;;5076459;28;20230;-86
2021/06/10 10:42:37;;;;;;;19.58;13.23;;;29.80;56.60;;;;;;5076157;28;20562;-85
2021/06/10 10:45:31;;;;;;;20.60;15.30;;;29.60;55.40;;;;;;5077187;28;20668;-86
2021/06/10 10:48:03;;;;;;;21.45;13.80;;;29.40;53.00;;;;;;5076297;28;20329;-86
2021/06/10 10:50:40;;;;;;;19.60;13.82;;;29.30;55.30;;;;;;5076196;28;20169;-87
2021/06/10 10:53:21;;;;;;;19.35;14.35;;;29.40;54.60;;;;;;5076375;28;20223;-86
2021/06/10 10:56:03;;;;;;;19.17;13.10;;;29.40;55.10;;;;;;5075937;28;20169;-86
2021/06/10 10:58:29;;;;;;;19.63;13.65;;;29.70;54.90;;;;;;5076409;28;20222;-86
2021/06/10 11:00:59;;;;;;;19.70;13.30;;;29.80;54.20;;;;;;5076359;28;20175;-85
2021/06/10 11:03:28;;;;;;;19.15;13.55;;;29.90;53.40;;;;;;5075990;28;20530;-86
2021/06/10 11:05:55;;;;;;;20.17;13.20;;;30.20;52.00;;;;;;5075646;28;20255;-86
2021/06/10 11:08:26;;;;;;;19.15;13.70;;;30.30;51.50;;;;;;5076347;28;20179;-86
2021/06/10 11:10:59;;;;;;;24.45;12.50;;;30.30;51.20;;;;;;5076311;28;20168;-86
2021/06/10 11:13:29;;;;;;;18.25;13.32;;;30.10;51.90;;;;;;5076918;28;20198;-86
2021/06/10 11:15:58;;;;;;;17.83;12.10;;;29.90;51.60;;;;;;5076302;28;20210;-87
2021/06/10 11:18:52;;;;;;;16.63;12.20;;;29.90;51.50;;;;;;5076023;28;20200;-86
2021/06/10 11:21:40;;;;;;;16.15;11.43;;;30.20;51.60;;;;;;5075346;28;20238;-86
2021/06/10 11:24:13;;;;;;;27.05;12.77;;;30.20;50.80;;;;;;5075577;28;20173;-86
2021/06/10 11:27:04;;;;;;;17.73;12.77;;;30.20;52.50;;;;;;5075783;28;20164;-86
2021/06/10 11:29:32;;;;;;;18.92;13.35;;;30.50;50.10;;;;;;5075655;28;20305;-86
2021/06/10 11:32:18;;;;;;;15.88;11.55;;;30.40;50.70;;;;;;5075831;28;20200;-86
2021/06/10 11:34:52;;;;;;;20.40;13.68;;;30.60;52.60;;;;;;5075619;28;20211;-86
2021/06/10 11:37:24;;;;;;;21.38;12.18;;;31.00;49.80;;;;;;5075572;28;20679;-86
2021/06/10 11:39:50;;;;;;;17.30;12.40;;;31.30;49.50;;;;;;5075940;28;20169;-86
2021/06/10 11:42:16;;;;;;;19.42;11.30;;;31.60;49.90;;;;;;5080001;28;20273;-86
2021/06/10 11:44:47;;;;;;;16.98;11.00;;;32.00;48.30;;;;;;5075884;28;20173;-86
2021/06/10 11:47:28;;;;;;;14.00;10.40;;;32.10;47.50;;;;;;5076877;28;20176;-85
2021/06/10 11:49:54;;;;;;;14.88;11.27;;;32.10;46.30;;;;;;5076496;28;20252;-86
2021/06/10 11:52:20;;;;;;;15.90;12.63;;;32.30;47.00;;;;;;5076339;28;20228;-85
2021/06/10 11:55:03;;;;;;;19.80;10.70;;;31.90;47.00;;;;;;5076391;28;20203;-85
2021/06/10 11:57:30;;;;;;;16.35;11.52;;;31.00;48.60;;;;;;5076178;28;21066;-86
2021/06/10 11:59:56;;;;;;;21.13;11.70;;;30.50;49.50;;;;;;5076234;28;20172;-86
2021/06/10 12:02:25;;;;;;;20.13;11.90;;;30.20;51.70;;;;;;5076246;28;20188;-85
2021/06/10 12:05:06;;;;;;;15.07;10.15;;;30.20;52.00;;;;;;5076385;28;20176;-86
2021/06/10 12:07:32;;;;;;;17.60;13.07;;;30.30;52.50;;;;;;5079219;28;20172;-86
2021/06/10 12:09:59;;;;;;;17.30;11.53;;;30.70;52.10;;;;;;5081969;28;20190;-85
2021/06/10 12:12:35;;;;;;;16.60;10.88;;;31.10;50.50;;;;;;5076212;28;20438;-86
2021/06/10 12:15:01;;;;;;;17.98;13.25;;;31.30;49.90;;;;;;5075988;28;20168;-86
2021/06/10 12:17:27;;;;;;;16.63;10.93;;;30.90;50.70;;;;;;5075661;28;20192;-86
2021/06/10 12:20:15;;;;;;;18.23;12.30;;;30.70;51.30;;;;;;5076667;28;20411;-86
2021/06/10 12:22:44;;;;;;;15.88;11.52;;;30.60;51.10;;;;;;5075406;28;20198;-87
2021/06/10 12:25:24;;;;;;;19.17;12.10;;;30.80;51.30;;;;;;5074623;28;20210;-86
2021/06/10 12:27:50;;;;;;;21.58;12.57;;;31.00;50.00;;;;;;5075644;28;20678;-87
2021/06/10 12:30:27;;;;;;;13.93;11.13;;;31.10;49.40;;;;;;5075742;28;20183;-86
2021/06/10 12:33:13;;;;;;;14.57;10.95;;;31.30;49.60;;;;;;5076141;28;20634;-87
2021/06/10 12:35:39;;;;;;;15.40;11.65;;;31.40;48.80;;;;;;5075210;28;20632;-86
2021/06/10 12:38:06;;;;;;;20.58;14.02;;;30.50;50.40;;;;;;5075359;28;20266;-85